createdAt,value
2023-01-21T00:00:31.489Z,100755.13
2023-01-21T00:01:32.975Z,100756.63
2023-01-21T00:02:34.575Z,100751.34
2023-01-21T00:03:36.266Z,100745.19
2023-01-21T00:04:40.944Z,100758.53
2023-01-21T00:05:42.452Z,100764.06
2023-01-21T00:06:43.931Z,100761.72
2023-01-21T00:07:45.595Z,100766.16
2023-01-21T00:08:47.109Z,100770.19
2023-01-21T00:09:48.565Z,100762.34
2023-01-21T00:10:50.069Z,100776.78
2023-01-21T00:11:51.573Z,100764.69
2023-01-21T00:12:53.079Z,100762.78
2023-01-21T00:13:54.562Z,100767.00
2023-01-21T00:14:56.066Z,100775.69
2023-01-21T00:15:57.661Z,100769.97
2023-01-21T00:16:59.210Z,100771.22
2023-01-21T00:18:00.703Z,100774.44
2023-01-21T00:19:02.218Z,100771.47
2023-01-21T00:20:03.994Z,100777.63
2023-01-21T00:21:05.573Z,100780.16
2023-01-21T00:22:07.091Z,100773.59
2023-01-21T00:23:10.892Z,100784.00
2023-01-21T00:24:12.402Z,100777.44
2023-01-21T00:25:13.927Z,100782.75
2023-01-21T00:26:15.444Z,100777.66
2023-01-21T00:27:16.943Z,100781.91
2023-01-21T00:28:18.924Z,100784.44
2023-01-21T00:29:21.520Z,100786.13
2023-01-21T00:30:23.038Z,100795.06
2023-01-21T00:31:25.259Z,100782.31
2023-01-21T00:32:27.096Z,100788.25
2023-01-21T00:33:28.812Z,100783.38
2023-01-21T00:34:30.321Z,100789.09
2023-01-21T00:35:32.017Z,100798.88
2023-01-21T00:36:33.584Z,100794.63
2023-01-21T00:37:35.076Z,100798.22
2023-01-21T00:38:36.656Z,100804.38
2023-01-21T00:39:42.743Z,100798.44
2023-01-21T00:40:44.234Z,100806.50
2023-01-21T00:41:45.765Z,100811.59
2023-01-21T00:42:47.290Z,100806.50
2023-01-21T00:43:48.864Z,100815.44
2023-01-21T00:44:50.373Z,100810.75
2023-01-21T00:45:51.897Z,100811.38
2023-01-21T00:46:53.394Z,100815.63
2023-01-21T00:47:54.960Z,100806.13
2023-01-21T00:48:56.467Z,100813.13
2023-01-21T00:49:57.946Z,100817.56
2023-01-21T00:51:00.874Z,100824.56
2023-01-21T00:52:02.493Z,100818.63
2023-01-21T00:53:03.988Z,100828.41
2023-01-21T00:54:05.557Z,100819.28
2023-01-21T00:55:07.155Z,100832.00
2023-01-21T00:56:09.667Z,100835.19
2023-01-21T00:57:11.417Z,100826.91
2023-01-21T00:58:12.937Z,100833.50
2023-01-21T00:59:14.590Z,100837.09
2023-01-21T01:00:16.957Z,100828.41
2023-01-21T01:01:19.431Z,100836.47
2023-01-21T01:02:20.974Z,100833.69
2023-01-21T01:03:24.857Z,100829.44
2023-01-21T01:04:26.396Z,100838.41
2023-01-21T01:05:27.948Z,100837.56
2023-01-21T01:06:29.475Z,100855.81
2023-01-21T01:07:31.005Z,100847.75
2023-01-21T01:08:32.509Z,100849.44
2023-01-21T01:09:34.091Z,100849.44
2023-01-21T01:10:37.037Z,100851.13
2023-01-21T01:11:38.744Z,100855.16
2023-01-21T01:12:40.312Z,100849.66
2023-01-21T01:13:41.841Z,100863.88
2023-01-21T01:14:43.441Z,100861.75
2023-01-21T01:15:45.055Z,100867.94
2023-01-21T01:16:46.559Z,100870.28
2023-01-21T01:17:48.015Z,100859.00
2023-01-21T01:18:49.525Z,100871.31
2023-01-21T01:19:51.246Z,100870.25
2023-01-21T01:20:52.762Z,100874.09
2023-01-21T01:21:54.271Z,100878.75
2023-01-21T01:22:55.830Z,100884.28
2023-01-21T01:24:00.646Z,100879.81
2023-01-21T01:25:02.205Z,100884.50
2023-01-21T01:26:04.809Z,100889.38
2023-01-21T01:27:06.302Z,100881.53
2023-01-21T01:28:08.033Z,100881.91
2023-01-21T01:29:10.461Z,100893.84
2023-01-21T01:30:12.215Z,100887.66
2023-01-21T01:31:14.844Z,100895.09
2023-01-21T01:32:16.439Z,100899.13
2023-01-21T01:33:19.272Z,100889.78
2023-01-21T01:34:20.759Z,100908.50
2023-01-21T01:35:22.405Z,100896.16
2023-01-21T01:36:23.909Z,100899.53
2023-01-21T01:37:25.458Z,100900.22
2023-01-21T01:38:26.974Z,100905.53
2023-01-21T01:39:28.465Z,100907.00
2023-01-21T01:40:32.522Z,100906.38
2023-01-21T01:41:35.327Z,100902.97
2023-01-21T01:42:36.855Z,100909.78
2023-01-21T01:43:58.099Z,100906.16
2023-01-21T01:44:59.637Z,100915.94
2023-01-21T01:46:01.099Z,100917.63
2023-01-21T01:47:02.610Z,100917.84
2023-01-21T01:48:06.322Z,100919.13
2023-01-21T01:49:13.123Z,100918.69
2023-01-21T01:50:15.395Z,100928.47
2023-01-21T01:51:17.634Z,100916.34
2023-01-21T01:52:19.398Z,100931.84
2023-01-21T01:53:20.978Z,100918.69
2023-01-21T01:54:29.855Z,100929.31
2023-01-21T01:55:32.401Z,100921.66
2023-01-21T01:56:33.864Z,100933.97
2023-01-21T01:57:36.127Z,100945.88
2023-01-21T01:58:37.787Z,100943.53
2023-01-21T01:59:39.343Z,100940.78
2023-01-21T02:00:40.842Z,100939.28
2023-01-21T02:01:42.365Z,100940.13
2023-01-21T02:02:44.021Z,100945.22
2023-01-21T02:03:46.260Z,100947.56
2023-01-21T02:04:51.522Z,100951.00
2023-01-21T02:05:53.255Z,100943.34
2023-01-21T02:06:54.748Z,100950.56
2023-01-21T02:07:56.299Z,100952.28
2023-01-21T02:08:57.884Z,100947.38
2023-01-21T02:09:59.379Z,100954.41
2023-01-21T02:11:02.641Z,100957.78
2023-01-21T02:12:04.403Z,100952.06
2023-01-21T02:13:06.006Z,100963.09
2023-01-21T02:14:07.489Z,100960.78
2023-01-21T02:15:09.170Z,100968.22
2023-01-21T02:16:10.779Z,100959.91
2023-01-21T02:17:12.285Z,100966.94
2023-01-21T02:18:32.793Z,100969.50
2023-01-21T02:19:47.028Z,100966.53
2023-01-21T02:21:03.428Z,100968.88
2023-01-21T02:22:07.675Z,100976.94
2023-01-21T02:23:27.957Z,100971.22
2023-01-21T02:24:55.009Z,100968.22
2023-01-21T02:26:15.044Z,100969.72
2023-01-21T02:27:30.975Z,100975.91
2023-01-21T02:28:51.104Z,100974.84
2023-01-21T02:30:07.722Z,100971.03
2023-01-21T02:31:15.316Z,100971.66
2023-01-21T02:32:21.917Z,100973.34
2023-01-21T02:33:34.637Z,100973.56
2023-01-21T02:34:38.771Z,100971.66
2023-01-21T02:35:45.721Z,100972.28
2023-01-21T02:36:56.073Z,100971.44
2023-01-21T02:37:57.544Z,100972.28
2023-01-21T02:39:17.501Z,100965.06
2023-01-21T02:40:37.758Z,100964.22
2023-01-21T02:41:57.947Z,100965.50
2023-01-21T02:43:11.736Z,100976.97
2023-01-21T02:44:19.141Z,100974.00
2023-01-21T02:45:33.451Z,100967.41
2023-01-21T02:46:35.038Z,100971.88
2023-01-21T02:47:39.544Z,100980.34
2023-01-21T02:49:10.287Z,100986.28
2023-01-21T02:50:16.244Z,100991.44
2023-01-21T02:51:20.694Z,100993.13
2023-01-21T02:52:22.925Z,100989.50
2023-01-21T02:53:24.604Z,100988.66
2023-01-21T02:54:41.006Z,100991.22
2023-01-21T02:55:43.565Z,100987.59
2023-01-21T02:56:45.202Z,100985.06
2023-01-21T02:57:50.327Z,100993.53
2023-01-21T02:59:01.074Z,100997.34
2023-01-21T03:00:03.717Z,100988.03
2023-01-21T03:01:07.799Z,100988.88
2023-01-21T03:02:13.505Z,100992.47
2023-01-21T03:03:26.946Z,100994.41
2023-01-21T03:04:31.892Z,101000.78
2023-01-21T03:05:44.022Z,100999.72
2023-01-21T03:06:56.210Z,101008.00
2023-01-21T03:08:07.687Z,101007.34
2023-01-21T03:09:18.110Z,101002.88
2023-01-21T03:10:24.605Z,101009.66
2023-01-21T03:11:26.078Z,100991.16
2023-01-21T03:12:33.392Z,101013.28
2023-01-21T03:13:53.960Z,101012.22
2023-01-21T03:15:20.763Z,101007.13
2023-01-21T03:16:42.660Z,101019.88
2023-01-21T03:17:44.929Z,101022.41
2023-01-21T03:18:46.442Z,101013.28
2023-01-21T03:20:02.509Z,101022.00
2023-01-21T03:21:05.530Z,101019.88
2023-01-21T03:22:08.734Z,101024.13
2023-01-21T03:23:14.730Z,101022.41
2023-01-21T03:24:16.279Z,101022.19
2023-01-21T03:25:17.786Z,101026.25
2023-01-21T03:26:20.882Z,101027.50
2023-01-21T03:27:24.909Z,101021.56
2023-01-21T03:28:26.863Z,101029.25
2023-01-21T03:29:28.805Z,101013.91
2023-01-21T03:30:30.347Z,101021.16
2023-01-21T03:31:32.673Z,101022.03
2023-01-21T03:32:34.193Z,101014.38
2023-01-21T03:33:36.460Z,101019.03
2023-01-21T03:34:39.621Z,101024.56
2023-01-21T03:35:43.550Z,101027.34
2023-01-21T03:36:54.941Z,101023.72
2023-01-21T03:38:09.936Z,101031.56
2023-01-21T03:39:14.827Z,101037.75
2023-01-21T03:40:19.911Z,101030.09
2023-01-21T03:41:22.002Z,101026.47
2023-01-21T03:42:23.695Z,101033.47
2023-01-21T03:43:25.186Z,101030.91
2023-01-21T03:44:26.657Z,101031.34
2023-01-21T03:45:31.617Z,101023.91
2023-01-21T03:46:41.888Z,101031.34
2023-01-21T03:47:43.627Z,101031.75
2023-01-21T03:48:52.955Z,101037.94
2023-01-21T03:49:58.784Z,101044.72
2023-01-21T03:51:02.661Z,101047.47
2023-01-21T03:52:04.335Z,101042.59
2023-01-21T03:53:06.208Z,101042.59
2023-01-21T03:54:07.726Z,101043.88
2023-01-21T03:55:09.592Z,101050.88
2023-01-21T03:56:11.184Z,101050.88
2023-01-21T03:57:12.672Z,101044.13
2023-01-21T03:58:14.177Z,101043.28
2023-01-21T03:59:15.693Z,101052.59
2023-01-21T04:00:17.736Z,101033.25
2023-01-21T04:01:19.432Z,101043.28
2023-01-21T04:02:21.254Z,101046.03
2023-01-21T04:03:22.779Z,101060.03
2023-01-21T04:04:24.302Z,101055.34
2023-01-21T04:05:25.795Z,101060.03
2023-01-21T04:06:27.313Z,101058.75
2023-01-21T04:07:28.843Z,101057.91
2023-01-21T04:08:30.340Z,101053.44
2023-01-21T04:09:31.826Z,101050.47
2023-01-21T04:10:33.449Z,101065.13
2023-01-21T04:11:35.077Z,101063.84
2023-01-21T04:12:36.617Z,101060.69
2023-01-21T04:13:38.119Z,101064.53
2023-01-21T04:14:39.637Z,101071.06
2023-01-21T04:15:41.128Z,101064.47
2023-01-21T04:16:42.804Z,101067.66
2023-01-21T04:17:44.396Z,101064.06
2023-01-21T04:18:47.602Z,101070.44
2023-01-21T04:19:49.147Z,101075.09
2023-01-21T04:20:50.665Z,101075.94
2023-01-21T04:21:52.204Z,101075.53
2023-01-21T04:22:53.767Z,101071.06
2023-01-21T04:23:55.371Z,101079.34
2023-01-21T04:24:56.869Z,101077.22
2023-01-21T04:25:58.365Z,101078.25
2023-01-21T04:26:59.933Z,101079.13
2023-01-21T04:28:01.706Z,101078.06
2023-01-21T04:29:03.304Z,101079.78
2023-01-21T04:30:05.075Z,101074.88
2023-01-21T04:31:06.609Z,101083.59
2023-01-21T04:32:08.281Z,101085.69
2023-01-21T04:33:09.802Z,101079.09
2023-01-21T04:34:11.328Z,101088.66
2023-01-21T04:35:12.829Z,101083.94
2023-01-21T04:36:14.306Z,101078.41
2023-01-21T04:37:15.950Z,101084.38
2023-01-21T04:38:17.607Z,101083.53
2023-01-21T04:39:19.373Z,101080.97
2023-01-21T04:40:21.020Z,101083.53
2023-01-21T04:41:25.175Z,101086.94
2023-01-21T04:42:26.963Z,101085.88
2023-01-21T04:43:28.481Z,101084.81
2023-01-21T04:44:29.959Z,101089.06
2023-01-21T04:45:31.473Z,101089.44
2023-01-21T04:46:32.987Z,101089.25
2023-01-21T04:47:34.495Z,101087.75
2023-01-21T04:48:36.117Z,101081.16
2023-01-21T04:49:37.661Z,101096.59
2023-01-21T04:50:39.201Z,101097.44
2023-01-21T04:51:40.673Z,101096.16
2023-01-21T04:52:42.243Z,101097.00
2023-01-21T04:53:43.809Z,101091.66
2023-01-21T04:54:45.338Z,101107.19
2023-01-21T04:55:46.879Z,101096.53
2023-01-21T04:56:48.343Z,101100.34
2023-01-21T04:57:49.831Z,101095.66
2023-01-21T04:58:51.324Z,101102.81
2023-01-21T04:59:52.867Z,101101.97
2023-01-21T05:00:54.728Z,101106.59
2023-01-21T05:01:56.438Z,101105.97
2023-01-21T05:02:57.982Z,101101.03
2023-01-21T05:03:59.495Z,101103.34
2023-01-21T05:05:01.019Z,101113.31
2023-01-21T05:06:02.542Z,101115.88
2023-01-21T05:07:03.994Z,101118.78
2023-01-21T05:08:05.581Z,101117.91
2023-01-21T05:09:07.188Z,101116.84
2023-01-21T05:10:09.847Z,101122.28
2023-01-21T05:11:11.666Z,101126.94
2023-01-21T05:12:13.244Z,101125.44
2023-01-21T05:13:14.773Z,101131.56
2023-01-21T05:14:16.270Z,101127.09
2023-01-21T05:15:17.782Z,101138.97
2023-01-21T05:16:19.369Z,101130.91
2023-01-21T05:17:21.121Z,101138.06
2023-01-21T05:18:22.623Z,101136.75
2023-01-21T05:19:24.142Z,101136.75
2023-01-21T05:20:25.835Z,101138.88
2023-01-21T05:21:27.358Z,101142.69
2023-01-21T05:22:28.863Z,101142.69
2023-01-21T05:23:30.767Z,101149.69
2023-01-21T05:24:32.301Z,101145.22
2023-01-21T05:25:33.861Z,101144.38
2023-01-21T05:26:35.421Z,101145.75
2023-01-21T05:27:37.010Z,101148.91
2023-01-21T05:28:38.562Z,101154.41
2023-01-21T05:29:40.161Z,101149.69
2023-01-21T05:30:44.364Z,101159.00
2023-01-21T05:31:46.241Z,101150.94
2023-01-21T05:32:51.742Z,101153.88
2023-01-21T05:33:53.262Z,101156.44
2023-01-21T05:34:54.776Z,101150.47
2023-01-21T05:35:56.261Z,101156.19
2023-01-21T05:36:57.742Z,101153.44
2023-01-21T05:38:00.448Z,101155.13
2023-01-21T05:39:02.147Z,101149.63
2023-01-21T05:40:03.874Z,101158.53
2023-01-21T05:41:05.695Z,101154.75
2023-01-21T05:42:07.239Z,101153.88
2023-01-21T05:43:08.731Z,101172.97
2023-01-21T05:44:10.287Z,101166.63
2023-01-21T05:45:11.923Z,101162.34
2023-01-21T05:46:13.537Z,101166.16
2023-01-21T05:47:15.073Z,101161.88
2023-01-21T05:48:16.600Z,101173.78
2023-01-21T05:49:18.324Z,101167.38
2023-01-21T05:50:19.894Z,101176.69
2023-01-21T05:51:21.482Z,101177.53
2023-01-21T05:52:23.057Z,101176.91
2023-01-21T05:53:24.860Z,101169.03
2023-01-21T05:54:26.403Z,101179.00
2023-01-21T05:55:27.900Z,101183.84
2023-01-21T05:56:29.446Z,101176.44
2023-01-21T05:57:31.114Z,101172.81
2023-01-21T05:58:32.767Z,101185.75
2023-01-21T05:59:34.957Z,101185.75
2023-01-21T06:00:37.405Z,101184.25
2023-01-21T06:01:40.767Z,101180.84
2023-01-21T06:02:42.963Z,101179.09
2023-01-21T06:03:44.913Z,101183.31
2023-01-21T06:04:46.395Z,101186.06
2023-01-21T06:05:48.356Z,101187.09
2023-01-21T06:06:49.819Z,101186.25
2023-01-21T06:07:51.333Z,101189.41
2023-01-21T06:08:52.858Z,101195.09
2023-01-21T06:09:54.371Z,101189.09
2023-01-21T06:10:56.378Z,101189.50
2023-01-21T06:11:57.920Z,101191.41
2023-01-21T06:12:59.393Z,101190.75
2023-01-21T06:14:00.860Z,101195.59
2023-01-21T06:15:02.409Z,101199.41
2023-01-21T06:16:04.076Z,101190.66
2023-01-21T06:17:05.600Z,101194.44
2023-01-21T06:18:07.171Z,101203.28
2023-01-21T06:19:08.822Z,101199.88
2023-01-21T06:20:10.587Z,101200.72
2023-01-21T06:21:12.052Z,101205.78
2023-01-21T06:22:14.746Z,101206.72
2023-01-21T06:23:16.245Z,101209.00
2023-01-21T06:24:17.821Z,101205.94
2023-01-21T06:25:19.350Z,101204.63
2023-01-21T06:26:20.800Z,101211.19
2023-01-21T06:27:22.295Z,101211.56
2023-01-21T06:28:23.780Z,101217.28
2023-01-21T06:29:25.281Z,101219.50
2023-01-21T06:30:26.818Z,101223.97
2023-01-21T06:31:28.401Z,101225.69
2023-01-21T06:32:29.940Z,101227.41
2023-01-21T06:33:31.428Z,101229.28
2023-01-21T06:34:32.927Z,101225.69
2023-01-21T06:35:34.437Z,101230.34
2023-01-21T06:36:36.397Z,101230.53
2023-01-21T06:37:37.908Z,101229.47
2023-01-21T06:38:39.461Z,101229.00
2023-01-21T06:39:41.388Z,101226.84
2023-01-21T06:40:43.212Z,101234.91
2023-01-21T06:41:44.916Z,101235.75
2023-01-21T06:42:46.953Z,101239.16
2023-01-21T06:43:48.424Z,101240.22
2023-01-21T06:44:49.875Z,101237.84
2023-01-21T06:45:51.534Z,101242.31
2023-01-21T06:47:00.774Z,101248.53
2023-01-21T06:48:02.567Z,101248.91
2023-01-21T06:49:04.070Z,101247.22
2023-01-21T06:50:05.800Z,101249.50
2023-01-21T06:51:07.339Z,101255.84
2023-01-21T06:52:08.921Z,101256.97
2023-01-21T06:53:10.423Z,101257.34
2023-01-21T06:54:11.941Z,101257.34
2023-01-21T06:55:13.703Z,101262.84
2023-01-21T06:56:15.162Z,101249.28
2023-01-21T06:57:16.756Z,101261.13
2023-01-21T06:58:18.308Z,101264.53
2023-01-21T06:59:19.768Z,101261.47
2023-01-21T07:00:21.573Z,101269.06
2023-01-21T07:01:23.124Z,101258.25
2023-01-21T07:02:24.662Z,101266.31
2023-01-21T07:03:26.157Z,101265.28
2023-01-21T07:04:27.718Z,101270.28
2023-01-21T07:05:29.274Z,101273.78
2023-01-21T07:06:30.791Z,101274.47
2023-01-21T07:07:32.319Z,101269.63
2023-01-21T07:08:33.857Z,101269.81
2023-01-21T07:09:35.373Z,101268.09
2023-01-21T07:10:36.840Z,101269.81
2023-01-21T07:11:38.380Z,101268.78
2023-01-21T07:12:39.928Z,101270.47
2023-01-21T07:13:41.400Z,101278.72
2023-01-21T07:14:42.949Z,101281.28
2023-01-21T07:15:44.443Z,101276.66
2023-01-21T07:16:45.936Z,101263.94
2023-01-21T07:17:47.474Z,101275.31
2023-01-21T07:18:48.935Z,101275.31
2023-01-21T07:19:50.473Z,101282.53
2023-01-21T07:20:51.977Z,101281.47
2023-01-21T07:21:53.544Z,101282.53
2023-01-21T07:22:55.028Z,101289.25
2023-01-21T07:23:56.665Z,101290.09
2023-01-21T07:24:58.169Z,101282.53
2023-01-21T07:25:59.668Z,101281.47
2023-01-21T07:27:01.145Z,101299.41
2023-01-21T07:28:02.667Z,101286.69
2023-01-21T07:29:04.876Z,101300.59
2023-01-21T07:30:06.729Z,101297.38
2023-01-21T07:31:08.814Z,101293.56
2023-01-21T07:32:10.391Z,101274.75
2023-01-21T07:33:11.906Z,101301.81
2023-01-21T07:34:13.454Z,101294.63
2023-01-21T07:35:15.325Z,101300.13
2023-01-21T07:36:17.159Z,101300.13
2023-01-21T07:37:18.647Z,101297.56
2023-01-21T07:38:20.183Z,101307.31
2023-01-21T07:39:21.733Z,101309.59
2023-01-21T07:40:23.258Z,101303.06
2023-01-21T07:41:24.880Z,101314.91
2023-01-21T07:42:26.439Z,101318.69
2023-01-21T07:43:28.218Z,101305.63
2023-01-21T07:44:29.721Z,101307.31
2023-01-21T07:45:31.265Z,101310.75
2023-01-21T07:46:33.305Z,101321.59
2023-01-21T07:47:34.852Z,101316.75
2023-01-21T07:48:36.431Z,101312.13
2023-01-21T07:49:38.038Z,101318.84
2023-01-21T07:50:39.608Z,101313.34
2023-01-21T07:51:41.093Z,101312.31
2023-01-21T07:52:42.675Z,101320.56
2023-01-21T07:53:44.380Z,101316.94
2023-01-21T07:54:46.771Z,101312.31
2023-01-21T07:55:48.307Z,101315.91
2023-01-21T07:56:49.806Z,101316.75
2023-01-21T07:57:51.349Z,101313.81
2023-01-21T07:58:52.853Z,101319.31
2023-01-21T07:59:54.540Z,101328.25
2023-01-21T08:00:56.019Z,101327.19
2023-01-21T08:01:58.044Z,101323.41
2023-01-21T08:02:59.747Z,101318.56
2023-01-21T08:04:01.303Z,101324.06
2023-01-21T08:05:02.849Z,101325.78
2023-01-21T08:06:04.760Z,101329.22
2023-01-21T08:07:11.908Z,101325.63
2023-01-21T08:08:14.542Z,101322.69
2023-01-21T08:09:16.047Z,101325.44
2023-01-21T08:10:17.877Z,101327.16
2023-01-21T08:11:19.393Z,101329.72
2023-01-21T08:12:20.903Z,101326.78
2023-01-21T08:13:22.586Z,101335.69
2023-01-21T08:14:24.048Z,101324.31
2023-01-21T08:15:25.623Z,101337.22
2023-01-21T08:16:27.160Z,101339.09
2023-01-21T08:17:28.664Z,101343.75
2023-01-21T08:18:30.184Z,101342.03
2023-01-21T08:19:31.685Z,101344.63
2023-01-21T08:20:33.180Z,101342.53
2023-01-21T08:21:34.711Z,101346.13
2023-01-21T08:22:36.354Z,101341.34
2023-01-21T08:23:37.900Z,101343.03
2023-01-21T08:24:39.439Z,101349.03
2023-01-21T08:25:41.741Z,101349.03
2023-01-21T08:26:43.255Z,101345.41
2023-01-21T08:27:44.877Z,101340.56
2023-01-21T08:28:46.428Z,101345.88
2023-01-21T08:29:48.559Z,101339.00
2023-01-21T08:30:50.213Z,101342.41
2023-01-21T08:31:52.454Z,101340.53
2023-01-21T08:32:54.026Z,101345.44
2023-01-21T08:33:55.760Z,101339.56
2023-01-21T08:34:57.387Z,101333.72
2023-01-21T08:35:59.504Z,101345.41
2023-01-21T08:37:01.324Z,101348.16
2023-01-21T08:38:02.827Z,101344.72
2023-01-21T08:39:06.332Z,101341.13
2023-01-21T08:40:10.180Z,101349.84
2023-01-21T08:41:11.734Z,101350.34
2023-01-21T08:42:13.231Z,101342.84
2023-01-21T08:43:14.744Z,101349.84
2023-01-21T08:44:16.265Z,101353.94
2023-01-21T08:45:18.008Z,101347.38
2023-01-21T08:46:19.902Z,101345.28
2023-01-21T08:47:21.435Z,101346.34
2023-01-21T08:48:22.897Z,101352.16
2023-01-21T08:49:24.495Z,101346.28
2023-01-21T08:50:26.099Z,101350.75
2023-01-21T08:51:27.604Z,101349.31
2023-01-21T08:52:29.097Z,101351.41
2023-01-21T08:53:30.650Z,101351.88
2023-01-21T08:54:32.173Z,101349.44
2023-01-21T08:55:33.691Z,101343.34
2023-01-21T08:56:35.271Z,101351.94
2023-01-21T08:57:36.777Z,101353.06
2023-01-21T08:58:38.320Z,101353.53
2023-01-21T08:59:39.869Z,101352.78
2023-01-21T09:00:41.945Z,101351.75
2023-01-21T09:01:43.642Z,101357.53
2023-01-21T09:02:45.115Z,101351.66
2023-01-21T09:03:46.582Z,101349.56
2023-01-21T09:04:50.483Z,101353.44
2023-01-21T09:05:52.132Z,101350.50
2023-01-21T09:06:53.643Z,101349.09
2023-01-21T09:07:57.893Z,101355.72
2023-01-21T09:08:59.605Z,101349.47
2023-01-21T09:10:01.170Z,101351.25
2023-01-21T09:11:03.150Z,101346.19
2023-01-21T09:12:07.577Z,101358.78
2023-01-21T09:13:09.290Z,101353.53
2023-01-21T09:14:10.800Z,101356.53
2023-01-21T09:15:12.325Z,101354.06
2023-01-21T09:16:13.837Z,101363.66
2023-01-21T09:17:15.455Z,101348.44
2023-01-21T09:18:16.986Z,101359.09
2023-01-21T09:19:18.519Z,101357.19
2023-01-21T09:20:20.139Z,101358.50
2023-01-21T09:21:21.653Z,101362.78
2023-01-21T09:22:23.129Z,101366.38
2023-01-21T09:23:24.969Z,101367.91
2023-01-21T09:24:26.633Z,101361.91
2023-01-21T09:25:28.117Z,101367.03
2023-01-21T09:26:29.739Z,101366.69
2023-01-21T09:27:31.223Z,101366.88
2023-01-21T09:28:38.815Z,101374.09
2023-01-21T09:29:41.560Z,101367.53
2023-01-21T09:30:43.060Z,101372.19
2023-01-21T09:31:44.584Z,101367.53
2023-01-21T09:32:46.137Z,101369.91
2023-01-21T09:33:48.527Z,101375.00
2023-01-21T09:34:50.021Z,101378.22
2023-01-21T09:35:54.760Z,101377.66
2023-01-21T09:36:56.250Z,101385.53
2023-01-21T09:37:57.708Z,101386.00
2023-01-21T09:38:59.399Z,101385.81
2023-01-21T09:40:01.183Z,101385.81
2023-01-21T09:41:04.722Z,101387.72
2023-01-21T09:42:13.680Z,101379.25
2023-01-21T09:43:17.877Z,101384.78
2023-01-21T09:44:19.309Z,101389.06
2023-01-21T09:45:20.795Z,101392.47
2023-01-21T09:46:40.810Z,101395.41
2023-01-21T09:47:42.530Z,101396.47
2023-01-21T09:48:44.612Z,101390.75
2023-01-21T09:49:46.076Z,101396.47
2023-01-21T09:50:47.621Z,101394.78
2023-01-21T09:51:52.701Z,101395.63
2023-01-21T09:52:55.211Z,101400.94
2023-01-21T09:53:57.100Z,101402.66
2023-01-21T09:54:58.729Z,101404.56
2023-01-21T09:56:00.909Z,101405.41
2023-01-21T09:57:08.503Z,101406.84
2023-01-21T09:58:15.534Z,101401.16
2023-01-21T09:59:21.047Z,101406.84
2023-01-21T10:00:31.900Z,101400.50
2023-01-21T10:01:33.945Z,101397.53
2023-01-21T10:02:35.465Z,101402.84
2023-01-21T10:03:42.966Z,101407.97
2023-01-21T10:04:46.616Z,101411.84
2023-01-21T10:05:59.833Z,101412.13
2023-01-21T10:07:06.572Z,101404.94
2023-01-21T10:08:26.617Z,101408.66
2023-01-21T10:09:28.441Z,101408.69
2023-01-21T10:10:33.468Z,101409.63
2023-01-21T10:11:35.140Z,101409.03
2023-01-21T10:12:39.722Z,101409.50
2023-01-21T10:13:43.078Z,101415.09
2023-01-21T10:15:00.114Z,101404.47
2023-01-21T10:16:13.107Z,101407.06
2023-01-21T10:17:33.248Z,101403.63
2023-01-21T10:18:35.072Z,101411.72
2023-01-21T10:19:40.757Z,101403.44
2023-01-21T10:20:44.367Z,101406.88
2023-01-21T10:21:51.117Z,101404.56
2023-01-21T10:23:04.668Z,101386.59
2023-01-21T10:24:13.173Z,101400.81
2023-01-21T10:25:18.516Z,101400.41
2023-01-21T10:26:20.276Z,101409.34
2023-01-21T10:27:22.010Z,101407.22
2023-01-21T10:28:24.249Z,101403.59
2023-01-21T10:29:25.786Z,101410.22
2023-01-21T10:30:37.522Z,101414.13
2023-01-21T10:31:40.008Z,101413.25
2023-01-21T10:32:41.577Z,101418.81
2023-01-21T10:33:43.089Z,101412.50
2023-01-21T10:34:48.201Z,101410.84
2023-01-21T10:35:49.718Z,101411.09
2023-01-21T10:36:53.829Z,101405.84
2023-01-21T10:37:57.809Z,101405.41
2023-01-21T10:39:05.447Z,101396.06
2023-01-21T10:40:14.004Z,101409.50
2023-01-21T10:41:34.068Z,101403.34
2023-01-21T10:42:41.402Z,101397.38
2023-01-21T10:43:45.693Z,101400.38
2023-01-21T10:45:16.545Z,101401.69
2023-01-21T10:46:24.605Z,101402.56
2023-01-21T10:47:34.428Z,101394.06
2023-01-21T10:48:38.524Z,101399.00
2023-01-21T10:49:40.012Z,101403.47
2023-01-21T10:50:47.744Z,101398.38
2023-01-21T10:51:53.647Z,101407.31
2023-01-21T10:53:04.430Z,101413.72
2023-01-21T10:54:08.041Z,101403.06
2023-01-21T10:55:31.237Z,101406.69
2023-01-21T10:56:34.063Z,101403.75
2023-01-21T10:57:39.903Z,101408.22
2023-01-21T10:58:42.986Z,101403.34
2023-01-21T10:59:44.500Z,101402.88
2023-01-21T11:00:47.403Z,101398.00
2023-01-21T11:01:53.372Z,101411.44
2023-01-21T11:02:56.582Z,101401.00
2023-01-21T11:04:04.612Z,101402.72
2023-01-21T11:05:06.238Z,101404.00
2023-01-21T11:06:09.209Z,101407.19
2023-01-21T11:07:12.062Z,101408.25
2023-01-21T11:08:20.465Z,101397.59
2023-01-21T11:09:22.117Z,101408.44
2023-01-21T11:10:24.857Z,101398.66
2023-01-21T11:11:27.589Z,101400.63
2023-01-21T11:12:30.648Z,101404.47
2023-01-21T11:13:32.149Z,101400.88
2023-01-21T11:14:33.937Z,101395.56
2023-01-21T11:15:35.623Z,101396.84
2023-01-21T11:16:40.763Z,101394.28
2023-01-21T11:17:42.408Z,101391.72
2023-01-21T11:18:43.894Z,101393.44
2023-01-21T11:19:45.533Z,101394.06
2023-01-21T11:20:47.040Z,101400.72
2023-01-21T11:22:07.266Z,101393.91
2023-01-21T11:23:24.504Z,101397.94
2023-01-21T11:24:26.139Z,101403.28
2023-01-21T11:25:43.292Z,101397.72
2023-01-21T11:26:50.159Z,101402.63
2023-01-21T11:27:51.635Z,101402.84
2023-01-21T11:29:11.039Z,101375.50
2023-01-21T11:30:48.671Z,101400.69
2023-01-21T11:32:00.277Z,101401.53
2023-01-21T11:33:12.092Z,101403.66
2023-01-21T11:34:13.565Z,101398.50
2023-01-21T11:35:24.378Z,101409.19
2023-01-21T11:36:25.982Z,101402.59
2023-01-21T11:37:27.808Z,101408.34
2023-01-21T11:38:29.258Z,101408.34
2023-01-21T11:39:34.887Z,101396.63
2023-01-21T11:40:36.377Z,101411.31
2023-01-21T11:41:37.857Z,101407.69
2023-01-21T11:42:49.152Z,101406.81
2023-01-21T11:43:51.525Z,101404.03
2023-01-21T11:45:06.780Z,101403.19
2023-01-21T11:46:21.577Z,101403.88
2023-01-21T11:47:30.045Z,101406.16
2023-01-21T11:48:31.594Z,101402.13
2023-01-21T11:49:33.171Z,101407.88
2023-01-21T11:50:35.263Z,101409.78
2023-01-21T11:51:37.513Z,101408.28
2023-01-21T11:52:39.016Z,101404.84
2023-01-21T11:53:41.335Z,101407.19
2023-01-21T11:54:42.916Z,101400.78
2023-01-21T11:55:51.702Z,101405.47
2023-01-21T11:56:56.437Z,101404.63
2023-01-21T11:57:57.941Z,101405.25
2023-01-21T11:58:59.436Z,101398.00
2023-01-21T12:00:07.773Z,101401.63
2023-01-21T12:01:19.873Z,101386.09
2023-01-21T12:02:25.464Z,101408.22
2023-01-21T12:03:28.905Z,101396.31
2023-01-21T12:04:30.429Z,101389.72